Colbert, WA

9:13 PM PDT on October 24, 2014 (GMT -0700)
Lower Gleneden | Change Station
CLOSE
Current Station
Personal Weather Station
Location: Spokane, WA
Elevation: 1650 ft
Nearby Weather Stations
Active Advisory: Wind Advisory

Elev 1650 ft 47.79 °N, 117.39 °W | Updated 12 seconds ago

Overcast
Overcast
48.4 °F
Feels Like 48 °F
N
0.0
Wind Variable Wind from North
Gusts 0.0 mph

Today
High -- | Low -- °F
--% Chance of Precip.
Yesterday
High -- | Low -- °F
Precip. -- in
7:22 AM 5:44 PM
New Moon, 2% visible
Pressure 30.03 in
Visibility 10.0 miles
Clouds Overcast 10000 ft
Windchill 48 °F
Dew Point 44 °F
Humidity 84%
Rainfall 0.00 in
Snow Depth 1 in
UV 0 out of 12
Pollen 1.20 out of 12
PM2.5 Moderate
Flu Activity Sporadic
METAR KDEW 250353Z AUTO 03007KT 10SM OVC100 09/05 A3000 RMK AO2 SLP167 T00940050

More Conditions Fewer Conditions

Pressure 30.03 in
Visibility 10.0 miles
Clouds Overcast 10000 ft
Windchill 48 °F
Dew Point 44 °F
Humidity 84%
Rainfall 0.00 in
Snow Depth 1 in
UV 0 out of 12
Pollen 1.20 out of 12
PM2.5 Moderate
Flu Activity Sporadic
METAR KDEW 250353Z AUTO 03007KT 10SM OVC100 09/05 A3000 RMK AO2 SLP167 T00940050

More Conditions Fewer Conditions

10-Day Weather Forecast

Almanac

Astronomy

Oct. 24, 2014 Rise Set
Actual Time 7:22 AM PDT 5:44 PM PDT
Civil Twilight 6:50 AM PDT 6:16 PM PDT
Nautical Twilight 6:14 AM PDT 6:52 PM PDT
Astronomical Twilight 5:38 AM PDT 7:28 PM PDT
Moon 8:08 AM PDT (10/24) 6:23 PM PDT (10/24)
Length of Visible Light 11h 25m
Length of Day
10h 22m
Tomorrow will be 3m 14s shorter.
New Moon, 2% of the Moon is Illuminated
Oct 25
New Moon
Oct 30
First Quarter
Nov 6
Full
Nov 14
Last Quarter
Nov 22
New

Today's Extremes

State Highs State Lows

Community

WunderPhotos

Upload Photos

1,764,779 photos uploaded!

Nearby

Air Quality

  Air Quality AQ Index Pollutant
Yesterday Good
PM10
Current Moderate
PM2.5
Friday Good
PM10
Friday Good
CO
Saturday Good
PM10
Saturday Good
CO
Sunday Good
PM10
Sunday Good
CO
Monday Good
PM10
Monday Good
CO

Snow Depth

Station Depth Elevation
Quartz Peak 1 in 4700 ft
Bunchgrass Meadow 0 in 5000 ft
Moses Mountain 0 in 5300 ft
Sourdough Gulch 0 in 4000 ft
Spruce Springs 1 in 5700 ft

Earthquake Activity

City Distance Mag. Time & Date
No recent earthquake activity has been reported nearby.
Minimum magnitude displayed is 2.5.

Coastal Water Temperatures

Place Temperature
No Stations Reporting

Nearby Weather Stations